createdAt,value
2022-08-28T00:04:37.802Z,2.62
2022-08-28T00:09:45.273Z,2.82
2022-08-28T00:14:52.395Z,3.07
2022-08-28T00:19:59.353Z,2.70
2022-08-28T00:25:06.571Z,3.01
2022-08-28T00:30:13.489Z,3.02
2022-08-28T00:35:20.610Z,2.80
2022-08-28T00:40:28.949Z,3.24
2022-08-28T00:45:39.323Z,3.42
2022-08-28T00:50:40.788Z,3.21
2022-08-28T00:55:47.897Z,3.64
2022-08-28T01:00:54.857Z,3.79
2022-08-28T01:06:01.955Z,4.07
2022-08-28T01:11:09.012Z,3.50
2022-08-28T01:16:16.082Z,3.94
2022-08-28T01:21:22.961Z,4.06
2022-08-28T01:26:30.037Z,4.17
2022-08-28T01:31:37.004Z,3.90
2022-08-28T01:36:44.013Z,4.17
2022-08-28T01:41:50.943Z,4.16
2022-08-28T01:46:57.970Z,4.36
2022-08-28T01:52:04.921Z,4.15
2022-08-28T01:57:11.526Z,4.14
2022-08-28T02:02:18.509Z,4.12
2022-08-28T02:07:25.641Z,3.97
2022-08-28T02:12:32.561Z,4.33
2022-08-28T02:17:39.608Z,3.98
2022-08-28T02:22:46.632Z,4.08
2022-08-28T02:27:53.706Z,4.31
2022-08-28T02:33:00.652Z,4.05
2022-08-28T02:38:07.759Z,4.17
2022-08-28T02:43:14.694Z,4.41
2022-08-28T02:48:21.785Z,3.88
2022-08-28T02:53:28.604Z,4.20
2022-08-28T02:58:35.722Z,4.49
2022-08-28T03:03:42.640Z,3.81
2022-08-28T03:08:49.701Z,3.80
2022-08-28T03:13:56.668Z,3.88
2022-08-28T03:19:03.911Z,4.19
2022-08-28T03:24:10.853Z,4.12
2022-08-28T03:29:17.496Z,3.62
2022-08-28T03:34:24.459Z,4.01
2022-08-28T03:39:31.540Z,3.43
2022-08-28T03:44:38.493Z,3.43
2022-08-28T03:49:45.913Z,3.63
2022-08-28T03:54:52.856Z,3.41
2022-08-28T03:59:59.930Z,3.47
2022-08-28T04:05:06.890Z,3.24
2022-08-28T04:10:13.996Z,3.25
2022-08-28T04:15:20.899Z,3.20
2022-08-28T04:20:27.990Z,3.14
2022-08-28T04:25:34.926Z,3.14
2022-08-28T04:30:42.006Z,3.24
2022-08-28T04:35:48.951Z,3.21
2022-08-28T04:40:56.066Z,3.28
2022-08-28T04:46:02.599Z,2.74
2022-08-28T04:51:09.741Z,2.98
2022-08-28T04:56:16.657Z,3.04
2022-08-28T05:01:23.842Z,2.87
2022-08-28T05:06:30.752Z,2.54
2022-08-28T05:11:37.758Z,2.90
2022-08-28T05:16:44.796Z,2.96
2022-08-28T05:21:51.786Z,2.72
2022-08-28T05:26:58.709Z,2.81
2022-08-28T05:32:05.862Z,2.45
2022-08-28T05:37:15.467Z,2.63
2022-08-28T05:42:19.485Z,2.40
2022-08-28T05:47:26.466Z,2.30
2022-08-28T05:52:33.531Z,2.40
2022-08-28T05:57:40.503Z,2.34
2022-08-28T06:02:47.521Z,2.40
2022-08-28T06:07:53.973Z,2.32
2022-08-28T06:13:01.049Z,2.18
2022-08-28T06:18:07.980Z,2.24
2022-08-28T06:23:15.034Z,2.13
2022-08-28T06:33:28.795Z,1.87
2022-08-28T06:38:45.224Z,1.68
2022-08-28T06:43:42.339Z,1.36
2022-08-28T06:48:57.337Z,0.92
2022-08-28T06:53:54.442Z,0.96
2022-08-28T06:59:10.125Z,0.86
2022-08-28T07:04:10.369Z,1.00
2022-08-28T07:09:09.052Z,1.00
2022-08-28T07:14:23.549Z,0.93
2022-08-28T07:19:17.067Z,0.98
2022-08-28T07:24:25.432Z,0.94
2022-08-28T07:29:34.024Z,0.83
2022-08-28T07:34:42.301Z,0.81
2022-08-28T07:39:49.264Z,1.08
2022-08-28T07:45:04.273Z,0.88
2022-08-28T07:50:01.216Z,0.93
2022-08-28T07:55:13.078Z,0.83
2022-08-28T08:00:10.055Z,0.82
2022-08-28T08:05:28.274Z,1.09
2022-08-28T08:10:25.226Z,0.95
2022-08-28T08:15:37.563Z,0.90
2022-08-28T08:20:34.547Z,0.84
2022-08-28T08:25:46.646Z,0.82
2022-08-28T08:30:43.848Z,0.86
2022-08-28T08:36:05.472Z,0.85
2022-08-28T08:40:52.519Z,0.90
2022-08-28T08:46:14.752Z,0.74
2022-08-28T08:51:01.821Z,1.39
2022-08-28T08:56:17.642Z,0.68
2022-08-28T09:01:18.647Z,0.92
2022-08-28T09:06:27.020Z,1.03
2022-08-28T09:16:36.776Z,0.83
2022-08-28T09:21:46.018Z,0.96
2022-08-28T09:26:47.542Z,0.91
2022-08-28T09:31:49.307Z,0.96
2022-08-28T09:36:54.322Z,0.87
2022-08-28T09:46:58.831Z,1.02
2022-08-28T09:57:06.811Z,0.80
2022-08-28T10:02:09.413Z,0.96
2022-08-28T10:07:20.385Z,0.94
2022-08-28T10:12:17.520Z,0.91
2022-08-28T10:17:24.770Z,0.94
2022-08-28T10:22:35.787Z,1.00
2022-08-28T10:27:32.812Z,0.98
2022-08-28T10:37:39.904Z,1.00
2022-08-28T10:42:43.230Z,1.12
2022-08-28T10:47:50.163Z,1.08
2022-08-28T10:53:02.432Z,1.18
2022-08-28T10:57:59.360Z,1.25
2022-08-28T11:03:27.088Z,1.25
2022-08-28T11:08:16.204Z,1.08
2022-08-28T11:13:23.523Z,1.00
2022-08-28T11:18:30.483Z,1.24
2022-08-28T11:23:37.682Z,1.22
2022-08-28T11:28:44.148Z,1.21
2022-08-28T11:33:51.496Z,1.32
2022-08-28T11:39:02.283Z,1.21
2022-08-28T11:43:59.607Z,1.20
2022-08-28T11:54:13.051Z,1.44
2022-08-28T12:04:23.139Z,1.41
2022-08-28T12:09:27.276Z,1.30
2022-08-28T12:14:34.414Z,1.31
2022-08-28T12:19:55.247Z,1.37
2022-08-28T12:24:47.033Z,1.34
2022-08-28T12:29:54.008Z,1.57
2022-08-28T12:35:01.048Z,1.55
2022-08-28T12:40:17.156Z,1.28
2022-08-28T12:45:15.363Z,1.30
2022-08-28T12:50:19.455Z,1.35
2022-08-28T12:55:26.519Z,1.19
2022-08-28T13:00:39.584Z,1.41
2022-08-28T13:05:36.717Z,1.67
2022-08-28T13:10:50.585Z,1.46
2022-08-28T13:15:47.697Z,1.51
2022-08-28T13:20:57.133Z,1.48
2022-08-28T13:31:08.676Z,1.39
2022-08-28T13:36:14.515Z,1.51
2022-08-28T13:41:17.871Z,1.54
2022-08-28T13:46:27.510Z,1.51
2022-08-28T13:51:34.441Z,1.55
2022-08-28T14:01:48.094Z,1.44
2022-08-28T14:06:56.329Z,1.56
2022-08-28T14:12:03.228Z,1.74
2022-08-28T14:17:16.038Z,1.41
2022-08-28T14:22:12.947Z,1.41
2022-08-28T14:27:26.533Z,1.42
2022-08-28T14:32:23.452Z,1.64
2022-08-28T14:37:31.663Z,1.65
2022-08-28T14:47:44.402Z,1.33
2022-08-28T14:52:50.596Z,1.54
2022-08-28T14:57:55.441Z,1.42
2022-08-28T15:03:14.668Z,1.31
2022-08-28T15:08:11.631Z,1.85
2022-08-28T15:13:23.509Z,1.54
2022-08-28T15:18:20.535Z,1.46
2022-08-28T15:23:32.462Z,1.43
2022-08-28T15:28:29.032Z,1.36
2022-08-28T15:33:45.097Z,1.53
2022-08-28T15:38:37.118Z,1.33
2022-08-28T15:43:48.493Z,1.56
2022-08-28T15:48:45.570Z,1.48
2022-08-28T15:53:56.407Z,1.59
2022-08-28T15:58:53.496Z,1.84
2022-08-28T16:04:05.328Z,1.40
2022-08-28T16:09:02.319Z,1.51
2022-08-28T16:14:15.878Z,1.59
2022-08-28T16:19:10.167Z,1.64
2022-08-28T16:24:22.360Z,1.38
2022-08-28T16:29:19.484Z,1.49
2022-08-28T16:34:31.620Z,1.64
2022-08-28T16:39:27.266Z,1.61
2022-08-28T16:44:39.153Z,1.52
2022-08-28T16:49:36.195Z,1.72
2022-08-28T16:54:48.692Z,1.50
2022-08-28T16:59:44.139Z,1.38
2022-08-28T17:09:57.418Z,1.79
2022-08-28T17:15:03.639Z,1.49
2022-08-28T17:20:10.706Z,1.59
2022-08-28T17:25:24.677Z,1.50
2022-08-28T17:30:21.726Z,1.50
2022-08-28T17:35:40.321Z,1.23
2022-08-28T17:45:46.440Z,1.42
2022-08-28T17:50:43.599Z,1.57
2022-08-28T17:55:55.047Z,1.79
2022-08-28T18:00:52.191Z,1.52
2022-08-28T18:06:02.703Z,1.38
2022-08-28T18:16:11.961Z,1.59
2022-08-28T18:21:16.929Z,1.55
2022-08-28T18:26:17.155Z,1.42
2022-08-28T18:31:14.370Z,1.61
2022-08-28T18:36:21.338Z,1.43
2022-08-28T18:41:43.223Z,1.51
2022-08-28T18:46:35.199Z,1.67
2022-08-28T18:51:42.176Z,1.80
2022-08-28T18:56:49.691Z,1.68
2022-08-28T19:01:55.886Z,2.12
2022-08-28T19:07:02.779Z,2.00
2022-08-28T19:12:10.106Z,2.13
2022-08-28T19:17:20.980Z,1.69
2022-08-28T19:22:23.761Z,1.91
2022-08-28T19:27:30.733Z,2.18
2022-08-28T19:32:37.943Z,2.99
2022-08-28T19:37:44.911Z,2.19
2022-08-28T19:42:52.010Z,2.15
2022-08-28T19:47:58.431Z,2.23
2022-08-28T19:53:05.601Z,2.37
2022-08-28T19:58:12.601Z,2.44
2022-08-28T20:03:20.582Z,2.05
2022-08-28T20:08:27.861Z,2.49
2022-08-28T20:13:35.299Z,2.36
2022-08-28T20:18:42.248Z,2.27
2022-08-28T20:23:49.532Z,2.22
2022-08-28T20:28:56.926Z,2.28
2022-08-28T20:34:04.393Z,1.95
2022-08-28T20:39:11.343Z,2.15
2022-08-28T20:44:18.514Z,2.02
2022-08-28T20:49:25.899Z,1.96
2022-08-28T20:54:32.995Z,1.94
2022-08-28T20:59:40.624Z,2.03
2022-08-28T21:04:46.882Z,2.27
2022-08-28T21:10:06.047Z,2.11
2022-08-28T21:15:01.058Z,2.03
2022-08-28T21:20:07.973Z,2.27
2022-08-28T21:25:15.157Z,2.53
2022-08-28T21:30:22.198Z,2.46
2022-08-28T21:35:28.716Z,2.33
2022-08-28T21:40:35.729Z,2.21
2022-08-28T21:45:42.761Z,2.06
2022-08-28T21:50:49.621Z,2.50
2022-08-28T21:55:56.248Z,2.60
2022-08-28T22:01:03.226Z,1.89
2022-08-28T22:06:10.260Z,2.34
2022-08-28T22:11:17.233Z,2.14
2022-08-28T22:16:23.969Z,2.30
2022-08-28T22:21:30.848Z,2.13
2022-08-28T22:26:37.999Z,2.45
2022-08-28T22:31:46.139Z,2.06
2022-08-28T22:36:51.716Z,2.25
2022-08-28T22:41:58.663Z,1.96
2022-08-28T22:47:05.766Z,1.99
2022-08-28T22:52:12.695Z,1.97
2022-08-28T22:57:21.993Z,1.94
2022-08-28T23:02:28.924Z,1.79
2022-08-28T23:07:35.943Z,2.02
2022-08-28T23:12:42.903Z,2.05
2022-08-28T23:17:49.978Z,2.21
2022-08-28T23:22:58.355Z,1.85
2022-08-28T23:28:06.363Z,1.87
2022-08-28T23:33:10.134Z,2.28
2022-08-28T23:38:17.280Z,2.13
2022-08-28T23:43:24.241Z,2.03
2022-08-28T23:48:31.568Z,2.23
2022-08-28T23:53:38.541Z,2.08
2022-08-28T23:58:45.647Z,2.03
